Airfield :
LOGIN :

Register | Disclaimer

   EN    FR    IT 

 










Legend :    VFR   Marginal VFR   IFR   Intensive IFR   Very Intensive IFR
Visi :
Ceiling :
>= 8 km
>= 3000ft
5 to 8 km
1000 to 3000 ft
1500m to 5 km
500 to 1000 ft
800 to 1500m
200 to 500 ft
< 800m
< 200 ft
Symbols :   Thunderstorms  Fog  Heavy snow  Heavy precipitations  Wind > 20 kt
SIGMETs :     Misc.  Thunderstorms  Icing  Turbulence  Mountain Waves  Volcanic Ashes






- Airport Elevation : 2945 ft
- IATA code : RGS


LEBG - Burgos

CURRENT METAR :
  • 200100Z AUTO 05004KT 020V100 CAVOK 05/02 Q1019

EXPIRED METARs :
  • 200030Z AUTO 04009KT CAVOK 05/02 Q1019
  • 200000Z AUTO 04011KT CAVOK 06/03 Q1019
  • 192330Z AUTO 04007KT CAVOK 06/02 Q1019
  • 192300Z AUTO VRB02KT CAVOK 07/02 Q1019
  • 192230Z AUTO VRB02KT CAVOK 08/02 Q1019
  • 192200Z AUTO 03003KT 350V070 CAVOK 08/00 Q1019
  • 192130Z AUTO 03007KT CAVOK 06/M00 Q1019
  • 192100Z AUTO 04006KT CAVOK 07/M01 Q1019
  • 192030Z AUTO 03004KT 010V070 CAVOK 09/M01 Q1019

TAF TAF LEBG
Valid from the 19 at 21:00 until the 20 at 21:00 UTC


192000Z 1921/2021 05007KT CAVOK TX18/2014Z TN04/2006Z



MET'MAP, your aeronautical weather chart ! - Copyright ORBIFLY December 2007 - Disclaimer

ORBIFLY MET'MAP TEAM :

Programming & Development : Alexandra Zaïnal
Original concept : Baudouin d'Aumeries
Technical & hardware support : Manuel Goepfert
Assistance : Marc-Olivier Méhu




SOURCES & CREDITS :

   NOAA